createdAt,value
2022-12-28T00:00:43.216Z,83.97
2022-12-28T00:01:43.239Z,83.97
2022-12-28T00:02:43.207Z,83.97
2022-12-28T00:03:43.147Z,83.86
2022-12-28T00:04:43.164Z,83.97
2022-12-28T00:05:43.136Z,83.86
2022-12-28T00:06:43.132Z,83.86
2022-12-28T00:07:43.193Z,83.86
2022-12-28T00:08:43.104Z,83.86
2022-12-28T00:09:43.080Z,83.86
2022-12-28T00:11:07.716Z,83.76
2022-12-28T00:11:44.064Z,83.65
2022-12-28T00:12:43.078Z,83.55
2022-12-28T00:13:43.055Z,83.51
2022-12-28T00:14:43.106Z,83.41
2022-12-28T00:15:43.022Z,83.51
2022-12-28T00:16:43.076Z,83.62
2022-12-28T00:17:42.995Z,83.72
2022-12-28T00:18:43.004Z,83.62
2022-12-28T00:19:42.992Z,83.72
2022-12-28T00:20:42.993Z,83.83
2022-12-28T00:21:42.957Z,84.03
2022-12-28T00:22:42.939Z,84.23
2022-12-28T00:23:42.928Z,84.44
2022-12-28T00:24:42.961Z,84.65
2022-12-28T00:25:42.905Z,84.96
2022-12-28T00:26:42.899Z,85.17
2022-12-28T00:27:42.888Z,85.37
2022-12-28T00:28:42.869Z,85.68
2022-12-28T00:29:42.884Z,85.89
2022-12-28T00:30:42.872Z,86.20
2022-12-28T00:31:42.906Z,86.51
2022-12-28T00:32:42.842Z,86.71
2022-12-28T00:33:42.879Z,86.82
2022-12-28T00:34:42.822Z,87.17
2022-12-28T00:35:42.805Z,87.37
2022-12-28T00:37:08.836Z,87.79
2022-12-28T00:37:43.795Z,88.10
2022-12-28T00:38:42.772Z,88.31
2022-12-28T00:39:42.817Z,88.41
2022-12-28T00:40:42.742Z,88.51
2022-12-28T00:41:42.732Z,88.71
2022-12-28T00:42:42.729Z,88.82
2022-12-28T00:43:42.872Z,89.03
2022-12-28T00:44:42.694Z,89.13
2022-12-28T00:45:42.703Z,89.34
2022-12-28T00:46:42.701Z,89.44
2022-12-28T00:47:42.670Z,89.44
2022-12-28T00:48:42.669Z,89.44
2022-12-28T00:49:42.679Z,89.54
2022-12-28T00:50:42.625Z,89.54
2022-12-28T00:51:42.619Z,89.75
2022-12-28T00:52:42.622Z,89.75
2022-12-28T00:53:42.594Z,89.75
2022-12-28T00:54:42.612Z,89.75
2022-12-28T00:55:42.603Z,89.86
2022-12-28T00:56:42.599Z,89.95
2022-12-28T00:57:42.545Z,90.06
2022-12-28T00:58:42.543Z,89.95
2022-12-28T00:59:42.540Z,90.06
2022-12-28T01:00:42.552Z,90.06
2022-12-28T01:01:42.670Z,90.06
2022-12-28T01:02:42.556Z,90.06
2022-12-28T01:03:42.477Z,90.06
2022-12-28T01:04:42.508Z,90.16
2022-12-28T01:05:42.488Z,90.37
2022-12-28T01:06:42.463Z,90.47
2022-12-28T01:07:42.464Z,90.68
2022-12-28T01:08:42.438Z,90.99
2022-12-28T01:09:42.417Z,91.20
2022-12-28T01:10:42.409Z,91.20
2022-12-28T01:11:42.405Z,91.20
2022-12-28T01:12:42.398Z,91.30
2022-12-28T01:13:42.409Z,91.40
2022-12-28T01:14:42.363Z,91.50
2022-12-28T01:15:42.360Z,91.61
2022-12-28T01:16:42.365Z,91.61
2022-12-28T01:17:42.344Z,91.82
2022-12-28T01:18:42.325Z,91.92
2022-12-28T01:19:42.330Z,91.92
2022-12-28T01:20:42.303Z,91.92
2022-12-28T01:21:42.298Z,91.92
2022-12-28T01:22:42.281Z,92.02
2022-12-28T01:23:42.252Z,92.13
2022-12-28T01:24:42.301Z,92.23
2022-12-28T01:25:42.242Z,92.33
2022-12-28T01:26:42.239Z,92.44
2022-12-28T01:27:42.212Z,92.54
2022-12-28T01:28:42.218Z,92.64
2022-12-28T01:29:42.195Z,92.74
2022-12-28T01:30:42.221Z,92.74
2022-12-28T01:31:42.225Z,92.85
2022-12-28T01:32:42.163Z,92.74
2022-12-28T01:33:42.150Z,92.85
2022-12-28T01:34:42.145Z,92.85
2022-12-28T01:35:42.129Z,92.95
2022-12-28T01:36:42.154Z,93.05
2022-12-28T01:37:42.118Z,93.05
2022-12-28T01:38:42.108Z,93.16
2022-12-28T01:39:42.079Z,93.16
2022-12-28T01:40:42.069Z,93.16
2022-12-28T01:41:42.096Z,93.16
2022-12-28T01:42:42.100Z,93.26
2022-12-28T01:43:42.046Z,93.37
2022-12-28T01:44:42.079Z,93.37
2022-12-28T01:45:42.032Z,93.26
2022-12-28T01:46:42.019Z,93.26
2022-12-28T01:47:41.994Z,93.16
2022-12-28T01:48:41.993Z,93.16
2022-12-28T01:49:41.963Z,93.16
2022-12-28T01:50:41.986Z,93.16
2022-12-28T01:51:41.950Z,93.05
2022-12-28T01:52:41.947Z,93.05
2022-12-28T01:53:41.931Z,93.05
2022-12-28T01:54:41.951Z,93.05
2022-12-28T01:55:41.911Z,93.05
2022-12-28T01:56:41.898Z,92.95
2022-12-28T01:57:41.888Z,92.95
2022-12-28T01:58:41.876Z,92.95
2022-12-28T01:59:41.856Z,92.95
2022-12-28T02:00:41.878Z,92.95
2022-12-28T02:01:41.882Z,92.95
2022-12-28T02:02:41.933Z,93.05
2022-12-28T02:03:41.813Z,92.95
2022-12-28T02:04:41.810Z,92.95
2022-12-28T02:05:41.808Z,92.85
2022-12-28T02:06:41.798Z,92.80
2022-12-28T02:07:41.768Z,92.80
2022-12-28T02:08:41.766Z,92.80
2022-12-28T02:09:41.761Z,92.70
2022-12-28T02:10:45.762Z,92.70
2022-12-28T02:11:41.739Z,92.60
2022-12-28T02:12:41.785Z,92.60
2022-12-28T02:13:41.703Z,92.60
2022-12-28T02:14:41.703Z,92.60
2022-12-28T02:15:41.743Z,92.50
2022-12-28T02:16:41.764Z,92.50
2022-12-28T02:17:41.661Z,92.50
2022-12-28T02:18:41.649Z,92.50
2022-12-28T02:19:41.637Z,92.50
2022-12-28T02:20:41.637Z,92.50
2022-12-28T02:21:41.643Z,92.50
2022-12-28T02:22:41.618Z,92.46
2022-12-28T02:23:41.653Z,92.46
2022-12-28T02:24:41.603Z,92.35
2022-12-28T02:25:41.569Z,92.25
2022-12-28T02:26:41.570Z,92.25
2022-12-28T02:27:41.583Z,92.25
2022-12-28T02:28:41.574Z,92.14
2022-12-28T02:29:41.522Z,92.14
2022-12-28T02:30:41.644Z,92.04
2022-12-28T02:31:41.512Z,91.94
2022-12-28T02:32:41.494Z,91.94
2022-12-28T02:33:41.508Z,91.94
2022-12-28T02:34:41.501Z,91.94
2022-12-28T02:35:42.144Z,91.79
2022-12-28T02:36:41.459Z,91.69
2022-12-28T02:37:41.462Z,91.69
2022-12-28T02:38:41.464Z,91.58
2022-12-28T02:39:41.416Z,91.48
2022-12-28T02:40:41.454Z,91.48
2022-12-28T02:41:41.387Z,91.48
2022-12-28T02:42:41.387Z,91.38
2022-12-28T02:43:41.367Z,91.38
2022-12-28T02:44:41.355Z,91.28
2022-12-28T02:45:41.400Z,91.28
2022-12-28T02:46:41.368Z,91.28
2022-12-28T02:47:41.346Z,91.07
2022-12-28T02:48:41.315Z,90.97
2022-12-28T02:49:41.316Z,90.92
2022-12-28T02:50:41.298Z,90.82
2022-12-28T02:51:41.330Z,90.72
2022-12-28T02:52:41.267Z,90.72
2022-12-28T02:53:41.257Z,90.61
2022-12-28T02:54:41.245Z,90.51
2022-12-28T02:55:41.229Z,90.41
2022-12-28T02:56:41.232Z,90.41
2022-12-28T02:57:41.229Z,90.41
2022-12-28T02:58:41.239Z,90.51
2022-12-28T02:59:41.189Z,90.51
2022-12-28T03:00:41.191Z,90.51
2022-12-28T03:01:41.266Z,90.57
2022-12-28T03:02:41.237Z,90.61
2022-12-28T03:03:41.149Z,90.51
2022-12-28T03:04:41.170Z,90.51
2022-12-28T03:05:41.122Z,90.47
2022-12-28T03:06:41.119Z,90.61
2022-12-28T03:07:41.090Z,90.47
2022-12-28T03:08:41.090Z,90.47
2022-12-28T03:09:41.080Z,90.37
2022-12-28T03:10:41.096Z,90.37
2022-12-28T03:11:41.053Z,90.37
2022-12-28T03:12:41.050Z,90.37
2022-12-28T03:13:41.026Z,90.37
2022-12-28T03:14:41.065Z,90.37
2022-12-28T03:15:41.081Z,90.47
2022-12-28T03:16:41.027Z,90.57
2022-12-28T03:17:40.991Z,90.67
2022-12-28T03:18:40.982Z,90.67
2022-12-28T03:19:40.986Z,90.67
2022-12-28T03:20:40.955Z,90.67
2022-12-28T03:21:40.989Z,90.67
2022-12-28T03:22:40.939Z,90.67
2022-12-28T03:23:40.925Z,90.67
2022-12-28T03:24:40.931Z,90.67
2022-12-28T03:25:40.904Z,90.67
2022-12-28T03:26:40.923Z,90.67
2022-12-28T03:27:40.899Z,90.67
2022-12-28T03:28:40.865Z,90.67
2022-12-28T03:29:40.875Z,90.67
2022-12-28T03:30:40.902Z,90.57
2022-12-28T03:31:40.839Z,90.57
2022-12-28T03:32:40.836Z,90.47
2022-12-28T03:33:40.817Z,90.47
2022-12-28T03:34:40.800Z,90.37
2022-12-28T03:35:40.826Z,90.26
2022-12-28T03:36:40.791Z,90.22
2022-12-28T03:37:40.763Z,90.12
2022-12-28T03:38:40.751Z,90.12
2022-12-28T03:39:40.797Z,90.01
2022-12-28T03:40:40.740Z,89.91
2022-12-28T03:41:40.752Z,89.91
2022-12-28T03:42:40.711Z,89.91
2022-12-28T03:43:40.732Z,89.81
2022-12-28T03:44:40.699Z,89.81
2022-12-28T03:45:45.668Z,89.71
2022-12-28T03:46:41.689Z,89.71
2022-12-28T03:47:40.667Z,89.71
2022-12-28T03:48:40.648Z,89.61
2022-12-28T03:49:40.650Z,89.61
2022-12-28T03:50:40.610Z,89.50
2022-12-28T03:51:40.641Z,89.40
2022-12-28T03:52:40.627Z,89.29
2022-12-28T03:53:40.580Z,89.19
2022-12-28T03:54:40.573Z,89.19
2022-12-28T03:55:40.618Z,89.19
2022-12-28T03:56:40.539Z,89.19
2022-12-28T03:57:40.573Z,89.09
2022-12-28T03:58:40.521Z,88.99
2022-12-28T03:59:40.538Z,88.95
2022-12-28T04:00:40.495Z,88.95
2022-12-28T04:01:40.613Z,88.95
2022-12-28T04:02:40.578Z,88.84
2022-12-28T04:03:40.472Z,88.84
2022-12-28T04:04:40.453Z,88.74
2022-12-28T04:05:40.453Z,88.74
2022-12-28T04:06:41.429Z,88.64
2022-12-28T04:07:40.429Z,88.53
2022-12-28T04:08:40.419Z,88.53
2022-12-28T04:09:40.422Z,88.53
2022-12-28T04:10:40.408Z,88.43
2022-12-28T04:11:40.384Z,88.43
2022-12-28T04:12:40.398Z,88.33
2022-12-28T04:13:40.373Z,88.29
2022-12-28T04:14:40.349Z,88.29
2022-12-28T04:15:40.378Z,88.18
2022-12-28T04:16:40.335Z,88.18
2022-12-28T04:17:41.267Z,88.08
2022-12-28T04:18:40.328Z,88.08
2022-12-28T04:19:40.295Z,88.08
2022-12-28T04:20:40.301Z,88.18
2022-12-28T04:21:40.282Z,88.18
2022-12-28T04:22:40.285Z,88.18
2022-12-28T04:23:40.254Z,88.18
2022-12-28T04:24:40.227Z,88.18
2022-12-28T04:25:40.236Z,88.29
2022-12-28T04:26:41.169Z,88.29
2022-12-28T04:27:40.271Z,88.39
2022-12-28T04:28:40.191Z,88.29
2022-12-28T04:29:40.189Z,88.29
2022-12-28T04:30:40.191Z,88.18
2022-12-28T04:31:40.196Z,88.24
2022-12-28T04:32:40.153Z,88.14
2022-12-28T04:33:40.146Z,88.14
2022-12-28T04:34:46.374Z,88.14
2022-12-28T04:35:41.128Z,88.14
2022-12-28T04:36:40.096Z,88.04
2022-12-28T04:37:40.092Z,87.94
2022-12-28T04:38:40.088Z,87.69
2022-12-28T04:39:54.731Z,87.59
2022-12-28T04:40:41.058Z,87.59
2022-12-28T04:41:40.062Z,87.49
2022-12-28T04:42:40.037Z,87.38
2022-12-28T04:43:40.027Z,87.38
2022-12-28T04:44:40.044Z,87.28
2022-12-28T04:45:40.014Z,87.18
2022-12-28T04:46:40.027Z,87.07
2022-12-28T04:47:39.985Z,87.18
2022-12-28T04:48:39.974Z,87.28
2022-12-28T04:49:39.979Z,87.38
2022-12-28T04:50:39.973Z,87.28
2022-12-28T04:51:39.943Z,87.38
2022-12-28T04:52:39.915Z,87.45
2022-12-28T04:53:39.940Z,87.55
2022-12-28T04:54:39.946Z,87.65
2022-12-28T04:55:39.925Z,87.75
2022-12-28T04:56:39.889Z,87.75
2022-12-28T04:57:39.871Z,87.65
2022-12-28T04:58:39.854Z,87.55
2022-12-28T04:59:39.878Z,87.55
2022-12-28T05:00:39.854Z,87.55
2022-12-28T05:01:39.995Z,87.34
2022-12-28T05:02:40.717Z,87.34
2022-12-28T05:03:39.816Z,87.34
2022-12-28T05:04:39.818Z,87.45
2022-12-28T05:05:39.800Z,87.55
2022-12-28T05:06:39.762Z,87.85
2022-12-28T05:07:39.767Z,87.96
2022-12-28T05:08:40.205Z,88.17
2022-12-28T05:09:39.745Z,88.47
2022-12-28T05:10:39.742Z,88.57
2022-12-28T05:11:39.712Z,88.78
2022-12-28T05:12:39.698Z,89.09
2022-12-28T05:13:39.729Z,89.19
2022-12-28T05:14:39.698Z,89.29
2022-12-28T05:15:39.669Z,89.40
2022-12-28T05:16:39.698Z,89.50
2022-12-28T05:17:39.657Z,89.75
2022-12-28T05:18:39.663Z,89.85
2022-12-28T05:19:39.931Z,89.75
2022-12-28T05:20:39.606Z,89.75
2022-12-28T05:21:40.187Z,89.29
2022-12-28T05:22:41.163Z,89.09
2022-12-28T05:23:39.646Z,88.98
2022-12-28T05:24:39.579Z,88.89
2022-12-28T05:25:39.562Z,88.57
2022-12-28T05:26:39.563Z,88.57
2022-12-28T05:27:39.536Z,88.47
2022-12-28T05:28:39.536Z,88.37
2022-12-28T05:29:39.549Z,88.37
2022-12-28T05:30:39.509Z,88.27
2022-12-28T05:31:39.531Z,88.17
2022-12-28T05:32:39.484Z,87.96
2022-12-28T05:33:39.476Z,87.82
2022-12-28T05:34:39.456Z,87.82
2022-12-28T05:35:39.445Z,87.61
2022-12-28T05:36:40.407Z,87.51
2022-12-28T05:37:39.438Z,87.51
2022-12-28T05:38:39.437Z,87.51
2022-12-28T05:39:39.415Z,87.40
2022-12-28T05:40:39.395Z,87.61
2022-12-28T05:41:39.410Z,87.82
2022-12-28T05:42:39.379Z,87.92
2022-12-28T05:43:39.366Z,88.23
2022-12-28T05:44:39.342Z,88.53
2022-12-28T05:45:39.366Z,88.84
2022-12-28T05:46:39.385Z,89.36
2022-12-28T05:47:39.329Z,89.66
2022-12-28T05:48:39.307Z,90.08
2022-12-28T05:49:39.304Z,90.48
2022-12-28T05:50:39.276Z,91.04
2022-12-28T05:51:40.126Z,91.35
2022-12-28T05:52:39.252Z,91.66
2022-12-28T05:53:39.254Z,91.86
2022-12-28T05:54:39.232Z,92.17
2022-12-28T05:55:39.238Z,92.27
2022-12-28T05:56:39.222Z,92.63
2022-12-28T05:57:39.247Z,92.63
2022-12-28T05:58:39.187Z,92.73
2022-12-28T05:59:39.204Z,92.93
2022-12-28T06:00:39.523Z,92.93
2022-12-28T06:01:39.315Z,92.93
2022-12-28T06:02:39.252Z,93.04
2022-12-28T06:03:39.224Z,92.93
2022-12-28T06:04:39.139Z,93.04
2022-12-28T06:05:39.127Z,93.14
2022-12-28T06:06:39.091Z,93.04
2022-12-28T06:07:39.123Z,93.14
2022-12-28T06:08:39.081Z,93.14
2022-12-28T06:09:39.093Z,93.14
2022-12-28T06:10:39.053Z,93.24
2022-12-28T06:11:39.079Z,93.35
2022-12-28T06:12:39.037Z,93.35
2022-12-28T06:13:49.276Z,93.55
2022-12-28T06:14:39.039Z,93.65
2022-12-28T06:15:39.140Z,93.76
2022-12-28T06:16:39.087Z,93.86
2022-12-28T06:17:38.994Z,93.76
2022-12-28T06:18:38.980Z,93.86
2022-12-28T06:19:38.987Z,93.86
2022-12-28T06:20:38.951Z,93.96
2022-12-28T06:21:38.948Z,93.96
2022-12-28T06:22:38.933Z,93.92
2022-12-28T06:23:38.948Z,93.96
2022-12-28T06:24:38.915Z,93.92
2022-12-28T06:25:38.905Z,93.82
2022-12-28T06:26:38.909Z,93.71
2022-12-28T06:27:38.875Z,93.51
2022-12-28T06:28:39.809Z,93.40
2022-12-28T06:29:38.853Z,93.30
2022-12-28T06:30:38.849Z,93.10
2022-12-28T06:31:39.853Z,92.89
2022-12-28T06:32:38.835Z,92.89
2022-12-28T06:33:38.857Z,92.79
2022-12-28T06:34:38.820Z,92.79
2022-12-28T06:35:38.806Z,92.89
2022-12-28T06:36:38.771Z,92.89
2022-12-28T06:37:38.758Z,92.79
2022-12-28T06:38:38.744Z,92.58
2022-12-28T06:39:38.783Z,92.58
2022-12-28T06:41:11.747Z,92.48
2022-12-28T06:41:39.719Z,92.38
2022-12-28T06:42:38.698Z,92.38
2022-12-28T06:43:38.696Z,92.38
2022-12-28T06:44:44.295Z,92.38
2022-12-28T06:45:39.774Z,92.33
2022-12-28T06:46:38.668Z,92.44
2022-12-28T06:47:38.675Z,92.64
2022-12-28T06:48:38.637Z,92.74
2022-12-28T06:49:38.676Z,92.95
2022-12-28T06:50:40.226Z,93.05
2022-12-28T06:51:38.660Z,93.30
2022-12-28T06:52:38.637Z,93.51
2022-12-28T06:53:38.593Z,93.71
2022-12-28T06:54:38.599Z,93.82
2022-12-28T06:55:38.585Z,94.02
2022-12-28T06:56:38.543Z,94.02
2022-12-28T06:57:38.544Z,94.02
2022-12-28T06:58:38.539Z,93.92
2022-12-28T06:59:38.524Z,93.92
2022-12-28T07:00:38.523Z,93.92
2022-12-28T07:01:38.681Z,93.82
2022-12-28T07:02:38.657Z,93.82
2022-12-28T07:03:38.476Z,93.82
2022-12-28T07:04:38.459Z,93.82
2022-12-28T07:05:38.501Z,93.82
2022-12-28T07:06:38.622Z,93.82
2022-12-28T07:07:38.433Z,93.82
2022-12-28T07:08:38.418Z,93.92
2022-12-28T07:09:38.398Z,93.87
2022-12-28T07:10:38.387Z,93.77
2022-12-28T07:11:38.428Z,93.77
2022-12-28T07:12:38.364Z,93.77
2022-12-28T07:13:38.366Z,93.77
2022-12-28T07:14:38.337Z,93.77
2022-12-28T07:15:38.327Z,93.57
2022-12-28T07:17:08.763Z,93.46
2022-12-28T07:18:08.560Z,93.57
2022-12-28T07:19:09.128Z,93.46
2022-12-28T07:20:08.531Z,93.46
2022-12-28T07:21:08.535Z,93.46
2022-12-28T07:22:08.613Z,93.46
2022-12-28T07:23:08.498Z,93.46
2022-12-28T07:24:08.514Z,93.36
2022-12-28T07:25:08.476Z,93.36
2022-12-28T07:26:08.467Z,93.46
2022-12-28T07:27:08.490Z,93.46
2022-12-28T07:28:08.437Z,93.46
2022-12-28T07:29:08.438Z,93.46
2022-12-28T07:30:08.541Z,93.67
2022-12-28T07:31:08.537Z,93.77
2022-12-28T07:32:08.396Z,93.77
2022-12-28T07:33:08.387Z,93.87
2022-12-28T07:34:08.391Z,94.08
2022-12-28T07:35:08.382Z,94.18
2022-12-28T07:36:08.410Z,94.39
2022-12-28T07:37:08.381Z,94.49
2022-12-28T07:38:08.330Z,94.64
2022-12-28T07:39:08.326Z,94.80
2022-12-28T07:40:08.327Z,94.84
2022-12-28T07:41:08.301Z,94.90
2022-12-28T07:42:08.320Z,94.95
2022-12-28T07:43:08.289Z,95.01
2022-12-28T07:44:08.307Z,95.01
2022-12-28T07:45:08.268Z,95.05
2022-12-28T07:46:08.261Z,95.15
2022-12-28T07:47:08.261Z,95.25
2022-12-28T07:48:08.274Z,95.25
2022-12-28T07:49:08.236Z,95.25
2022-12-28T07:50:09.199Z,95.31
2022-12-28T07:51:08.198Z,95.31
2022-12-28T07:52:08.170Z,95.36
2022-12-28T07:53:08.199Z,95.21
2022-12-28T07:54:08.199Z,95.21
2022-12-28T07:55:08.142Z,95.21
2022-12-28T07:56:09.087Z,95.10
2022-12-28T07:57:08.140Z,95.10
2022-12-28T07:58:08.110Z,95.01
2022-12-28T07:59:08.100Z,95.01
2022-12-28T08:00:08.108Z,94.80
2022-12-28T08:01:08.170Z,94.70
2022-12-28T08:02:08.214Z,94.59
2022-12-28T08:03:08.076Z,94.49
2022-12-28T08:04:08.062Z,94.29
2022-12-28T08:05:08.035Z,94.18
2022-12-28T08:06:08.014Z,94.08
2022-12-28T08:07:08.043Z,93.98
2022-12-28T08:08:07.992Z,93.87
2022-12-28T08:09:08.003Z,93.87
2022-12-28T08:10:07.983Z,93.77
2022-12-28T08:11:07.969Z,93.57
2022-12-28T08:12:07.984Z,93.36
2022-12-28T08:13:07.949Z,93.12
2022-12-28T08:14:07.946Z,92.91
2022-12-28T08:15:07.964Z,92.70
2022-12-28T08:16:07.968Z,92.50
2022-12-28T08:17:07.901Z,92.29
2022-12-28T08:18:07.886Z,91.99
2022-12-28T08:19:07.880Z,91.78
2022-12-28T08:20:07.960Z,91.78
2022-12-28T08:21:07.857Z,91.67
2022-12-28T08:22:07.840Z,91.53
2022-12-28T08:23:07.837Z,91.42
2022-12-28T08:24:07.820Z,91.33
2022-12-28T08:25:07.835Z,91.22
2022-12-28T08:26:07.807Z,91.12
2022-12-28T08:27:07.781Z,91.02
2022-12-28T08:28:07.780Z,90.81
2022-12-28T08:29:07.774Z,90.71
2022-12-28T08:30:07.753Z,90.71
2022-12-28T08:31:07.833Z,90.50
2022-12-28T08:32:07.875Z,90.40
2022-12-28T08:33:07.726Z,90.40
2022-12-28T08:34:07.710Z,90.30
2022-12-28T08:35:07.689Z,90.30
2022-12-28T08:36:07.701Z,90.20
2022-12-28T08:37:07.709Z,90.09
2022-12-28T08:38:07.664Z,90.20
2022-12-28T08:39:07.661Z,90.05
2022-12-28T08:40:07.633Z,90.05
2022-12-28T08:41:07.629Z,89.95
2022-12-28T08:42:07.610Z,89.84
2022-12-28T08:43:07.639Z,89.84
2022-12-28T08:44:07.597Z,89.84
2022-12-28T08:45:07.606Z,89.84
2022-12-28T08:46:07.663Z,89.64
2022-12-28T08:47:07.580Z,89.64
2022-12-28T08:48:07.555Z,89.54
2022-12-28T08:49:07.576Z,89.54
2022-12-28T08:50:07.816Z,89.43
2022-12-28T08:51:07.590Z,89.33
2022-12-28T08:52:07.512Z,89.33
2022-12-28T08:53:07.512Z,89.33
2022-12-28T08:54:07.501Z,89.33
2022-12-28T08:55:07.528Z,89.33
2022-12-28T08:56:07.570Z,89.33
2022-12-28T08:57:08.268Z,89.33
2022-12-28T08:58:07.424Z,89.33
2022-12-28T08:59:08.377Z,89.33
2022-12-28T09:00:08.385Z,89.33
2022-12-28T09:01:07.627Z,89.23
2022-12-28T09:02:07.708Z,89.23
2022-12-28T09:03:07.617Z,89.03
2022-12-28T09:04:07.376Z,88.88
2022-12-28T09:05:07.390Z,88.98
2022-12-28T09:06:07.581Z,88.98
2022-12-28T09:07:07.562Z,88.88
2022-12-28T09:08:07.345Z,88.78
2022-12-28T09:09:07.546Z,88.88
2022-12-28T09:10:07.341Z,88.88
2022-12-28T09:11:07.332Z,88.88
2022-12-28T09:12:07.303Z,88.78
2022-12-28T09:13:07.294Z,88.68
2022-12-28T09:14:07.263Z,88.57
2022-12-28T09:15:07.259Z,88.57
2022-12-28T09:16:07.629Z,88.68
2022-12-28T09:17:07.259Z,88.68
2022-12-28T09:18:07.600Z,88.57
2022-12-28T09:19:08.218Z,88.47
2022-12-28T09:20:07.216Z,88.37
2022-12-28T09:21:07.193Z,88.27
2022-12-28T09:22:07.610Z,88.17
2022-12-28T09:23:07.428Z,88.17
2022-12-28T09:24:07.138Z,88.02
2022-12-28T09:25:07.171Z,87.92
2022-12-28T09:26:07.131Z,87.92
2022-12-28T09:27:07.161Z,87.82
2022-12-28T09:28:07.118Z,87.82
2022-12-28T09:29:07.113Z,87.82
2022-12-28T09:30:07.083Z,87.71
2022-12-28T09:31:07.159Z,87.71
2022-12-28T09:32:07.054Z,87.30
2022-12-28T09:33:07.862Z,87.30
2022-12-28T09:35:08.035Z,86.99
2022-12-28T09:36:07.019Z,86.99
2022-12-28T09:37:07.023Z,86.90
2022-12-28T09:38:07.045Z,86.99
2022-12-28T09:39:07.074Z,87.10
2022-12-28T09:40:07.959Z,87.10
2022-12-28T09:41:07.913Z,86.90
2022-12-28T09:42:06.963Z,86.79
2022-12-28T09:43:06.939Z,86.90
2022-12-28T09:44:06.917Z,86.90
2022-12-28T09:45:06.954Z,86.90
2022-12-28T09:46:06.930Z,86.69
2022-12-28T09:47:06.964Z,86.48
2022-12-28T09:48:07.063Z,86.55
2022-12-28T09:49:06.880Z,86.65
2022-12-28T09:50:06.881Z,86.65
2022-12-28T09:51:06.848Z,86.65
2022-12-28T09:52:06.851Z,86.44
2022-12-28T09:53:06.903Z,86.55
2022-12-28T09:54:06.844Z,86.44
2022-12-28T09:55:06.787Z,86.44
2022-12-28T09:56:06.793Z,86.34
2022-12-28T09:57:06.781Z,86.34
2022-12-28T09:58:06.818Z,86.34
2022-12-28T09:59:06.789Z,86.34
2022-12-28T10:00:06.748Z,86.44
2022-12-28T10:01:06.791Z,86.34
2022-12-28T10:02:06.795Z,86.24
2022-12-28T10:03:06.785Z,86.24
2022-12-28T10:04:08.815Z,86.34
2022-12-28T10:05:07.796Z,86.55
2022-12-28T10:06:07.747Z,86.34
2022-12-28T10:07:06.965Z,86.14
2022-12-28T10:08:07.870Z,86.04
2022-12-28T10:09:06.943Z,85.93
2022-12-28T10:10:06.900Z,86.04
2022-12-28T10:11:06.988Z,85.93
2022-12-28T10:12:06.883Z,86.04
2022-12-28T10:13:21.572Z,86.04
2022-12-28T10:14:07.848Z,86.04
2022-12-28T10:15:06.705Z,86.14
2022-12-28T10:16:06.606Z,86.14
2022-12-28T10:17:06.592Z,86.24
2022-12-28T10:18:06.552Z,86.04
2022-12-28T10:19:06.653Z,85.83
2022-12-28T10:20:06.514Z,85.72
2022-12-28T10:21:07.490Z,85.83
2022-12-28T10:22:06.511Z,85.72
2022-12-28T10:23:06.518Z,85.63
2022-12-28T10:24:31.353Z,85.72
2022-12-28T10:25:07.686Z,85.63
2022-12-28T10:26:06.695Z,85.52
2022-12-28T10:27:06.473Z,85.58
2022-12-28T10:28:06.452Z,85.58
2022-12-28T10:29:06.411Z,85.58
2022-12-28T10:30:06.710Z,85.58
2022-12-28T10:31:06.545Z,85.38
2022-12-28T10:32:06.514Z,85.38
2022-12-28T10:33:08.641Z,85.38
2022-12-28T10:34:06.365Z,85.38
2022-12-28T10:35:06.390Z,85.38
2022-12-28T10:36:06.340Z,85.48
2022-12-28T10:37:06.462Z,85.48
2022-12-28T10:38:08.287Z,85.58
2022-12-28T10:39:06.331Z,85.69
2022-12-28T10:40:06.314Z,85.58
2022-12-28T10:41:06.327Z,85.38
2022-12-28T10:42:06.309Z,85.28
2022-12-28T10:43:10.853Z,85.28
2022-12-28T10:44:37.855Z,85.28
2022-12-28T10:45:07.312Z,85.28
2022-12-28T10:46:06.231Z,85.28
2022-12-28T10:47:06.250Z,85.28
2022-12-28T10:48:06.216Z,85.28
2022-12-28T10:49:08.650Z,85.38
2022-12-28T10:51:07.236Z,85.24
2022-12-28T10:52:06.173Z,85.03
2022-12-28T10:53:06.145Z,84.93
2022-12-28T10:54:06.134Z,84.72
2022-12-28T10:55:08.295Z,84.52
2022-12-28T10:56:06.272Z,84.31
2022-12-28T10:57:06.117Z,84.42
2022-12-28T10:58:36.022Z,84.42
2022-12-28T10:59:07.124Z,84.52
2022-12-28T11:00:06.075Z,84.42
2022-12-28T11:01:06.208Z,84.31
2022-12-28T11:02:06.211Z,84.31
2022-12-28T11:03:06.069Z,84.22
2022-12-28T11:04:06.972Z,84.31
2022-12-28T11:05:06.172Z,84.31
2022-12-28T11:06:06.013Z,84.42
2022-12-28T11:07:05.996Z,84.11
2022-12-28T11:08:05.993Z,84.01
2022-12-28T11:09:06.043Z,84.01
2022-12-28T11:10:06.015Z,83.91
2022-12-28T11:11:07.491Z,83.81
2022-12-28T11:12:05.953Z,83.91
2022-12-28T11:13:05.942Z,83.91
2022-12-28T11:14:05.945Z,83.91
2022-12-28T11:15:05.941Z,84.01
2022-12-28T11:16:06.013Z,84.22
2022-12-28T11:17:05.881Z,84.01
2022-12-28T11:18:06.153Z,84.01
2022-12-28T11:19:05.859Z,83.81
2022-12-28T11:20:05.892Z,83.91
2022-12-28T11:21:06.929Z,83.81
2022-12-28T11:22:05.830Z,83.91
2022-12-28T11:23:05.815Z,84.01
2022-12-28T11:24:05.822Z,83.91
2022-12-28T11:25:05.931Z,83.81
2022-12-28T11:26:05.834Z,83.70
2022-12-28T11:27:05.800Z,83.66
2022-12-28T11:28:05.754Z,83.56
2022-12-28T11:29:05.742Z,83.56
2022-12-28T11:30:05.737Z,83.46
2022-12-28T11:31:05.740Z,83.70
2022-12-28T11:32:06.512Z,83.36
2022-12-28T11:33:05.723Z,83.25
2022-12-28T11:34:05.716Z,83.25
2022-12-28T11:35:05.683Z,83.46
2022-12-28T11:36:10.023Z,83.56
2022-12-28T11:37:05.678Z,83.56
2022-12-28T11:38:05.934Z,83.66
2022-12-28T11:39:05.634Z,83.66
2022-12-28T11:40:05.662Z,83.60
2022-12-28T11:41:05.713Z,83.70
2022-12-28T11:43:06.597Z,83.50
2022-12-28T11:44:05.619Z,83.39
2022-12-28T11:45:05.583Z,83.60
2022-12-28T11:46:05.594Z,83.60
2022-12-28T11:47:05.590Z,83.60
2022-12-28T11:48:05.697Z,83.70
2022-12-28T11:49:05.533Z,83.70
2022-12-28T11:50:05.522Z,83.81
2022-12-28T11:51:06.973Z,83.91
2022-12-28T11:52:05.489Z,83.70
2022-12-28T11:53:10.509Z,83.46
2022-12-28T11:54:06.487Z,83.70
2022-12-28T11:55:06.402Z,83.70
2022-12-28T11:56:05.453Z,83.56
2022-12-28T11:57:05.418Z,83.46
2022-12-28T11:58:05.674Z,83.15
2022-12-28T11:59:05.430Z,83.05
2022-12-28T12:00:05.411Z,83.15
2022-12-28T12:01:06.369Z,83.25
2022-12-28T12:02:06.875Z,83.46
2022-12-28T12:03:05.415Z,83.46
2022-12-28T12:04:05.380Z,83.46
2022-12-28T12:05:06.333Z,83.36
2022-12-28T12:06:05.341Z,83.36
2022-12-28T12:07:05.313Z,83.05
2022-12-28T12:08:05.337Z,82.95
2022-12-28T12:09:05.299Z,83.05
2022-12-28T12:10:05.308Z,83.05
2022-12-28T12:11:05.333Z,82.95
2022-12-28T12:12:05.321Z,82.84
2022-12-28T12:13:05.257Z,82.84
2022-12-28T12:14:05.263Z,82.84
2022-12-28T12:15:05.233Z,82.84
2022-12-28T12:16:05.245Z,82.75
2022-12-28T12:17:06.717Z,82.84
2022-12-28T12:18:05.237Z,82.75
2022-12-28T12:19:05.193Z,82.84
2022-12-28T12:20:06.660Z,82.43
2022-12-28T12:21:10.127Z,82.34
2022-12-28T12:22:06.175Z,82.34
2022-12-28T12:23:05.157Z,82.34
2022-12-28T12:24:05.331Z,82.43
2022-12-28T12:25:05.143Z,82.34
2022-12-28T12:26:05.137Z,82.03
2022-12-28T12:27:11.868Z,81.82
2022-12-28T12:28:06.085Z,81.82
2022-12-28T12:29:05.074Z,81.82
2022-12-28T12:30:05.059Z,82.03
2022-12-28T12:31:05.314Z,82.03
2022-12-28T12:32:05.055Z,81.82
2022-12-28T12:33:05.286Z,81.82
2022-12-28T12:34:05.018Z,81.72
2022-12-28T12:35:05.000Z,81.82
2022-12-28T12:36:05.004Z,81.76
2022-12-28T12:37:06.617Z,82.07
2022-12-28T12:38:05.105Z,81.86
2022-12-28T12:39:05.653Z,82.07
2022-12-28T12:40:04.953Z,82.37
2022-12-28T12:41:04.990Z,82.68
2022-12-28T12:42:04.948Z,82.98
2022-12-28T12:43:04.932Z,83.09
2022-12-28T12:44:04.904Z,82.98
2022-12-28T12:45:05.061Z,83.39
2022-12-28T12:46:04.913Z,83.23
2022-12-28T12:47:06.452Z,82.92
2022-12-28T12:48:04.888Z,82.71
2022-12-28T12:49:05.037Z,81.38
2022-12-28T12:50:04.848Z,81.38
2022-12-28T12:51:05.790Z,81.18
2022-12-28T12:52:06.297Z,81.29
2022-12-28T12:53:06.803Z,81.29
2022-12-28T12:54:05.190Z,80.98
2022-12-28T12:55:06.271Z,81.18
2022-12-28T12:56:04.787Z,81.38